createdAt,value
2023-01-12T00:03:32.823Z,92.51
2023-01-12T00:08:39.296Z,92.69
2023-01-12T00:13:45.779Z,92.90
2023-01-12T00:18:54.840Z,92.83
2023-01-12T00:24:00.928Z,92.65
2023-01-12T00:29:06.893Z,93.20
2023-01-12T00:34:14.856Z,93.61
2023-01-12T00:39:22.902Z,93.40
2023-01-12T00:44:47.024Z,93.32
2023-01-12T00:49:54.972Z,93.33
2023-01-12T00:55:01.747Z,93.42
2023-01-12T01:00:11.033Z,93.63
2023-01-12T01:05:19.179Z,93.54
2023-01-12T01:10:25.438Z,93.60
2023-01-12T01:15:31.751Z,93.69
2023-01-12T01:20:40.565Z,93.58
2023-01-12T01:25:46.833Z,93.60
2023-01-12T01:30:54.263Z,93.43
2023-01-12T01:36:02.665Z,93.90
2023-01-12T01:41:17.482Z,93.78
2023-01-12T01:46:42.235Z,93.83
2023-01-12T01:51:51.221Z,93.74
2023-01-12T01:56:59.296Z,93.58
2023-01-12T02:02:06.282Z,93.93
2023-01-12T02:07:14.452Z,94.19
2023-01-12T02:12:38.263Z,94.13
2023-01-12T02:18:00.868Z,94.01
2023-01-12T02:23:50.172Z,94.60
2023-01-12T02:29:30.648Z,94.54
2023-01-12T02:34:51.857Z,94.94
2023-01-12T02:40:04.433Z,95.03
2023-01-12T02:45:25.030Z,94.93
2023-01-12T02:50:41.084Z,95.00
2023-01-12T02:55:48.856Z,95.02
2023-01-12T03:00:59.076Z,95.21
2023-01-12T03:06:09.229Z,95.20
2023-01-12T03:11:17.764Z,95.32
2023-01-12T03:16:27.334Z,95.29
2023-01-12T03:21:40.131Z,95.75
2023-01-12T03:26:50.870Z,95.60
2023-01-12T03:31:59.621Z,95.35
2023-01-12T03:37:13.555Z,95.59
2023-01-12T03:42:28.089Z,95.76
2023-01-12T03:47:35.642Z,95.75
2023-01-12T03:52:45.245Z,96.08
2023-01-12T03:57:53.592Z,95.92
2023-01-12T04:03:11.258Z,95.99
2023-01-12T04:08:19.371Z,96.07
2023-01-12T04:13:26.034Z,96.19
2023-01-12T04:18:32.906Z,96.08
2023-01-12T04:23:40.675Z,96.28
2023-01-12T04:28:48.555Z,96.38
2023-01-12T04:33:55.139Z,96.50
2023-01-12T04:39:03.270Z,96.34
2023-01-12T04:44:09.898Z,96.50
2023-01-12T04:49:16.633Z,96.46
2023-01-12T04:54:24.632Z,96.59
2023-01-12T04:59:31.976Z,96.45
2023-01-12T05:04:38.251Z,96.79
2023-01-12T05:10:03.379Z,96.73
2023-01-12T05:15:11.163Z,96.74
2023-01-12T05:20:18.236Z,96.82
2023-01-12T05:25:27.039Z,96.65
2023-01-12T05:30:33.544Z,96.79
2023-01-12T05:35:40.870Z,97.01
2023-01-12T05:40:48.974Z,97.07
2023-01-12T05:45:55.696Z,96.90
2023-01-12T05:51:03.878Z,96.83
2023-01-12T05:56:17.454Z,97.07
2023-01-12T06:01:25.081Z,96.91
2023-01-12T06:06:33.152Z,97.06
2023-01-12T06:11:58.979Z,96.96
2023-01-12T06:17:05.778Z,97.14
2023-01-12T06:22:12.599Z,97.11
2023-01-12T06:27:20.994Z,97.12
2023-01-12T06:32:27.322Z,97.23
2023-01-12T06:37:33.727Z,97.24
2023-01-12T06:42:44.146Z,97.37
2023-01-12T06:47:52.486Z,97.36
2023-01-12T06:53:01.875Z,97.18
2023-01-12T06:58:09.631Z,97.22
2023-01-12T07:03:19.614Z,97.32
2023-01-12T07:08:26.260Z,97.14
2023-01-12T07:13:34.072Z,97.29
2023-01-12T07:18:40.443Z,97.45
2023-01-12T07:23:48.025Z,97.48
2023-01-12T07:28:57.343Z,97.35
2023-01-12T07:34:03.700Z,97.45
2023-01-12T07:39:11.830Z,97.49
2023-01-12T07:44:19.672Z,97.67
2023-01-12T07:49:25.912Z,97.39
2023-01-12T07:54:33.943Z,97.52
2023-01-12T07:59:41.906Z,97.50
2023-01-12T08:04:49.096Z,97.41
2023-01-12T08:09:55.780Z,97.27
2023-01-12T08:15:04.800Z,97.22
2023-01-12T08:20:17.735Z,97.15
2023-01-12T08:25:31.337Z,97.22
2023-01-12T08:30:39.344Z,96.90
2023-01-12T08:35:46.768Z,97.06
2023-01-12T08:41:10.366Z,97.05
2023-01-12T08:46:18.641Z,96.85
2023-01-12T08:51:24.957Z,96.76
2023-01-12T08:56:31.979Z,96.89
2023-01-12T09:01:40.050Z,96.77
2023-01-12T09:06:48.776Z,96.41
2023-01-12T09:11:55.435Z,96.64
2023-01-12T09:17:03.982Z,96.20
2023-01-12T09:22:12.480Z,96.52
2023-01-12T09:27:19.006Z,96.34
2023-01-12T09:32:36.208Z,96.52
2023-01-12T09:37:45.288Z,96.49
2023-01-12T09:43:10.066Z,96.06
2023-01-12T09:48:19.668Z,96.48
2023-01-12T09:53:31.461Z,96.16
2023-01-12T09:59:00.009Z,96.08
2023-01-12T10:04:08.559Z,95.90
2023-01-12T10:09:20.102Z,96.36
2023-01-12T10:15:04.947Z,95.83
2023-01-12T10:20:25.354Z,95.83
2023-01-12T10:25:41.103Z,95.60
2023-01-12T10:30:47.816Z,95.31
2023-01-12T10:36:02.346Z,94.83
2023-01-12T10:41:18.695Z,94.23
2023-01-12T10:46:27.793Z,93.46
2023-01-12T10:51:37.604Z,93.35
2023-01-12T10:56:54.335Z,93.25
2023-01-12T11:02:17.935Z,93.21
2023-01-12T11:07:29.378Z,93.17
2023-01-12T11:12:38.205Z,92.83
2023-01-12T11:18:03.905Z,92.74
2023-01-12T11:23:20.588Z,92.73
2023-01-12T11:28:33.826Z,92.27
2023-01-12T11:33:44.379Z,91.95
2023-01-12T11:38:56.586Z,91.44
2023-01-12T11:44:17.026Z,91.04
2023-01-12T11:49:31.188Z,91.00
2023-01-12T11:54:40.962Z,90.46
2023-01-12T12:00:06.101Z,89.94
2023-01-12T12:05:36.711Z,90.14
2023-01-12T12:10:52.803Z,89.86
2023-01-12T12:16:15.903Z,90.16
2023-01-12T12:21:50.549Z,90.09
2023-01-12T12:27:13.204Z,90.07
2023-01-12T12:32:32.571Z,89.80
2023-01-12T12:37:54.491Z,89.38
2023-01-12T12:43:32.761Z,89.56
2023-01-12T12:48:46.149Z,89.22
2023-01-12T12:53:54.831Z,89.68
2023-01-12T12:59:04.324Z,89.64
2023-01-12T13:04:14.618Z,89.35
2023-01-12T13:09:40.781Z,89.41
2023-01-12T13:15:22.606Z,89.74
2023-01-12T13:20:59.993Z,89.55
2023-01-12T13:26:37.746Z,89.86
2023-01-12T13:31:47.801Z,89.67
2023-01-12T13:37:22.431Z,89.30
2023-01-12T13:42:47.857Z,89.54
2023-01-12T13:47:56.315Z,89.54
2023-01-12T13:53:06.519Z,89.10
2023-01-12T13:58:20.364Z,89.27
2023-01-12T14:04:01.653Z,88.88
2023-01-12T14:09:22.560Z,88.53
2023-01-12T14:15:08.278Z,88.73
2023-01-12T14:20:21.136Z,89.08
2023-01-12T14:25:27.799Z,89.12
2023-01-12T14:30:35.325Z,88.94
2023-01-12T14:35:47.946Z,88.90
2023-01-12T14:41:03.648Z,89.19
2023-01-12T14:46:27.587Z,89.21
2023-01-12T14:51:37.406Z,89.09
2023-01-12T14:56:49.591Z,89.19
2023-01-12T15:02:35.726Z,89.48
2023-01-12T15:07:55.663Z,89.29
2023-01-12T15:13:28.412Z,89.18
2023-01-12T15:18:53.863Z,89.23
2023-01-12T15:24:19.327Z,89.24
2023-01-12T15:29:25.524Z,88.97
2023-01-12T15:34:31.917Z,88.99
2023-01-12T15:39:39.775Z,88.89
2023-01-12T15:44:47.264Z,89.23
2023-01-12T15:49:54.040Z,88.97
2023-01-12T15:55:02.160Z,89.06
2023-01-12T16:00:15.798Z,89.20
2023-01-12T16:05:24.698Z,89.43
2023-01-12T16:10:33.293Z,89.23
2023-01-12T16:15:40.218Z,89.41
2023-01-12T16:20:47.225Z,89.38
2023-01-12T16:26:00.077Z,89.67
2023-01-12T16:31:10.263Z,89.78
2023-01-12T16:36:18.972Z,89.54
2023-01-12T16:41:27.432Z,90.07
2023-01-12T16:46:34.017Z,89.89
2023-01-12T16:51:40.699Z,89.80
2023-01-12T16:56:49.068Z,89.92
2023-01-12T17:01:56.260Z,89.93
2023-01-12T17:07:02.879Z,90.06
2023-01-12T17:12:11.204Z,89.94
2023-01-12T17:17:17.689Z,90.02
2023-01-12T17:22:24.321Z,90.35
2023-01-12T17:27:32.403Z,90.61
2023-01-12T17:32:39.184Z,90.67
2023-01-12T17:37:45.806Z,90.76
2023-01-12T17:43:08.254Z,90.86
2023-01-12T17:48:18.350Z,90.58
2023-01-12T17:53:24.916Z,90.49
2023-01-12T17:58:33.039Z,90.79
2023-01-12T18:03:41.609Z,90.72
2023-01-12T18:08:49.356Z,90.44
2023-01-12T18:13:57.811Z,90.53
2023-01-12T18:19:06.393Z,90.58
2023-01-12T18:24:13.801Z,90.54
2023-01-12T18:29:22.463Z,90.23
2023-01-12T18:34:29.914Z,90.27
2023-01-12T18:39:37.969Z,90.02
2023-01-12T18:44:48.616Z,90.13
2023-01-12T18:49:58.514Z,90.57
2023-01-12T18:55:06.883Z,90.68
2023-01-12T19:00:18.700Z,90.64
2023-01-12T19:05:35.398Z,90.76
2023-01-12T19:10:42.143Z,90.63
2023-01-12T19:16:10.861Z,90.72
2023-01-12T19:21:38.424Z,90.71
2023-01-12T19:27:04.309Z,90.93
2023-01-12T19:32:13.561Z,90.88
2023-01-12T19:37:21.365Z,90.54
2023-01-12T19:42:46.984Z,90.38
2023-01-12T19:47:56.900Z,90.41
2023-01-12T19:53:06.306Z,90.46
2023-01-12T19:58:16.078Z,90.00
2023-01-12T20:03:28.306Z,90.24
2023-01-12T20:08:36.398Z,90.06
2023-01-12T20:13:45.999Z,90.03
2023-01-12T20:19:00.589Z,90.00
2023-01-12T20:24:10.015Z,89.70
2023-01-12T20:29:18.437Z,89.73
2023-01-12T20:34:28.143Z,89.63
2023-01-12T20:39:35.343Z,89.89
2023-01-12T20:44:43.344Z,89.65
2023-01-12T20:49:53.461Z,89.47
2023-01-12T20:55:01.857Z,89.35
2023-01-12T21:00:13.580Z,89.69
2023-01-12T21:05:22.653Z,89.68
2023-01-12T21:10:30.492Z,89.49
2023-01-12T21:15:37.220Z,89.55
2023-01-12T21:20:46.599Z,89.40
2023-01-12T21:25:55.884Z,89.79
2023-01-12T21:31:03.812Z,89.65
2023-01-12T21:36:14.680Z,89.81
2023-01-12T21:41:22.869Z,89.64
2023-01-12T21:46:31.819Z,89.49
2023-01-12T21:51:39.597Z,89.18
2023-01-12T21:56:46.150Z,89.38
2023-01-12T22:01:52.982Z,89.20
2023-01-12T22:07:01.272Z,88.80
2023-01-12T22:12:10.066Z,89.18
2023-01-12T22:17:16.415Z,89.09
2023-01-12T22:22:24.282Z,89.14
2023-01-12T22:27:30.481Z,89.11
2023-01-12T22:32:37.075Z,89.07
2023-01-12T22:37:45.053Z,89.20
2023-01-12T22:43:08.623Z,89.18
2023-01-12T22:48:14.977Z,88.99
2023-01-12T22:53:24.477Z,88.77
2023-01-12T22:58:31.286Z,88.94
2023-01-12T23:03:38.730Z,88.93
2023-01-12T23:08:47.535Z,88.68
2023-01-12T23:13:54.719Z,88.54
2023-01-12T23:19:02.562Z,88.63
2023-01-12T23:24:10.873Z,88.56
2023-01-12T23:29:17.932Z,88.48
2023-01-12T23:39:49.988Z,88.66
2023-01-12T23:44:57.004Z,88.54
2023-01-12T23:50:03.344Z,88.56
2023-01-12T23:55:11.659Z,88.77
